sensor_id;sensor_type;location;lat;lon;timestamp;pressure;altitude;pressure_sealevel;temperature;humidity
62152;BME280;48139;47.474;19.034;2022-12-15T04:41:26;99594.63;;;0.45;100.00
62152;BME280;48139;47.474;19.034;2022-12-15T04:44:51;99594.63;;;0.45;100.00
62152;BME280;48139;47.474;19.034;2022-12-15T04:48:21;99604.75;;;0.07;100.00
62152;BME280;48139;47.474;19.034;2022-12-15T04:51:43;99610.59;;;0.18;100.00
62152;BME280;48139;47.474;19.034;2022-12-15T04:55:04;99636.06;;;0.31;100.00
62152;BME280;48139;47.474;19.034;2022-12-15T04:58:25;99631.19;;;0.65;100.00
62152;BME280;48139;47.474;19.034;2022-12-15T05:01:46;99636.66;;;0.47;100.00
62152;BME280;48139;47.474;19.034;2022-12-15T05:05:08;99626.28;;;0.50;100.00
62152;BME280;48139;47.474;19.034;2022-12-15T05:08:29;99619.19;;;0.63;100.00
62152;BME280;48139;47.474;19.034;2022-12-15T05:11:51;99639.03;;;0.58;100.00
62152;BME280;48139;47.474;19.034;2022-12-15T05:15:12;99647.69;;;0.55;100.00
62152;BME280;48139;47.474;19.034;2022-12-15T05:18:34;99644.34;;;0.50;100.00
62152;BME280;48139;47.474;19.034;2022-12-15T05:21:55;99659.03;;;0.45;100.00
62152;BME280;48139;47.474;19.034;2022-12-15T05:25:17;99660.47;;;0.61;100.00
62152;BME280;48139;47.474;19.034;2022-12-15T05:28:38;99669.06;;;0.62;100.00
62152;BME280;48139;47.474;19.034;2022-12-15T05:31:59;99651.91;;;0.59;100.00
62152;BME280;48139;47.474;19.034;2022-12-15T05:35:02;99651.88;;;0.62;100.00
62152;BME280;48139;47.474;19.034;2022-12-15T05:38:05;99668.16;;;0.63;100.00
62152;BME280;48139;47.474;19.034;2022-12-15T05:41:07;99681.00;;;0.66;100.00
62152;BME280;48139;47.474;19.034;2022-12-15T05:44:10;99680.63;;;0.87;100.00
62152;BME280;48139;47.474;19.034;2022-12-15T05:47:13;99674.25;;;1.05;100.00
62152;BME280;48139;47.474;19.034;2022-12-15T05:50:16;99681.03;;;1.10;100.00
62152;BME280;48139;47.474;19.034;2022-12-15T05:53:18;99685.19;;;1.16;100.00
62152;BME280;48139;47.474;19.034;2022-12-15T05:56:21;99698.69;;;1.30;99.22
62152;BME280;48139;47.474;19.034;2022-12-15T05:59:23;99704.56;;;1.37;99.56
62152;BME280;48139;47.474;19.034;2022-12-15T06:02:29;99718.44;;;1.31;98.35
62152;BME280;48139;47.474;19.034;2022-12-15T06:05:31;99730.72;;;1.18;100.00
62152;BME280;48139;47.474;19.034;2022-12-15T06:08:36;99730.88;;;1.11;100.00
62152;BME280;48139;47.474;19.034;2022-12-15T06:11:39;99727.41;;;1.12;100.00
62152;BME280;48139;47.474;19.034;2022-12-15T06:14:41;99734.31;;;1.10;100.00
62152;BME280;48139;47.474;19.034;2022-12-15T06:17:44;99745.41;;;1.15;100.00
62152;BME280;48139;47.474;19.034;2022-12-15T06:20:58;99746.22;;;1.18;100.00
62152;BME280;48139;47.474;19.034;2022-12-15T06:24:03;99748.06;;;1.12;100.00
62152;BME280;48139;47.474;19.034;2022-12-15T06:27:05;99749.44;;;1.30;100.00
62152;BME280;48139;47.474;19.034;2022-12-15T06:30:08;99753.28;;;1.52;99.00
62152;BME280;48139;47.474;19.034;2022-12-15T06:33:10;99767.41;;;1.34;98.86
62152;BME280;48139;47.474;19.034;2022-12-15T06:36:14;99771.87;;;1.25;100.00
62152;BME280;48139;47.474;19.034;2022-12-15T06:39:17;99772.66;;;1.28;100.00
62152;BME280;48139;47.474;19.034;2022-12-15T06:42:19;99770.81;;;1.35;98.75
62152;BME280;48139;47.474;19.034;2022-12-15T06:45:22;99766.91;;;1.58;97.83
62152;BME280;48139;47.474;19.034;2022-12-15T06:48:25;99767.75;;;1.60;96.54
62152;BME280;48139;47.474;19.034;2022-12-15T06:51:28;99771.06;;;1.66;96.27
62152;BME280;48139;47.474;19.034;2022-12-15T06:54:31;99773.66;;;1.66;96.14
62152;BME280;48139;47.474;19.034;2022-12-15T06:57:33;99783.19;;;1.62;97.00
62152;BME280;48139;47.474;19.034;2022-12-15T07:00:39;99796.84;;;1.69;96.40
62152;BME280;48139;47.474;19.034;2022-12-15T07:03:43;99804.47;;;1.73;96.75
62152;BME280;48139;47.474;19.034;2022-12-15T07:06:46;99790.81;;;1.68;96.18
62152;BME280;48139;47.474;19.034;2022-12-15T07:09:48;99788.44;;;1.57;98.29
62152;BME280;48139;47.474;19.034;2022-12-15T07:12:51;99820.25;;;1.58;97.92
62152;BME280;48139;47.474;19.034;2022-12-15T07:15:53;99830.31;;;1.72;98.07
62152;BME280;48139;47.474;19.034;2022-12-15T07:18:56;99827.59;;;1.79;96.72
62152;BME280;48139;47.474;19.034;2022-12-15T07:21:59;99842.22;;;1.79;97.40
62152;BME280;48139;47.474;19.034;2022-12-15T07:25:03;99835.47;;;1.72;97.61
62152;BME280;48139;47.474;19.034;2022-12-15T07:28:06;99835.88;;;1.95;95.80
62152;BME280;48139;47.474;19.034;2022-12-15T07:31:09;99842.16;;;1.82;96.10
62152;BME280;48139;47.474;19.034;2022-12-15T07:34:12;99837.41;;;2.05;95.25
62152;BME280;48139;47.474;19.034;2022-12-15T07:37:15;99833.03;;;2.07;93.81
62152;BME280;48139;47.474;19.034;2022-12-15T07:40:17;99844.59;;;1.89;95.70
62152;BME280;48139;47.474;19.034;2022-12-15T07:43:21;99862.88;;;1.80;97.04
62152;BME280;48139;47.474;19.034;2022-12-15T07:46:24;99856.34;;;2.04;94.92
62152;BME280;48139;47.474;19.034;2022-12-15T07:49:27;99860.03;;;1.92;96.17
62152;BME280;48139;47.474;19.034;2022-12-15T07:52:30;99855.28;;;2.13;95.31
62152;BME280;48139;47.474;19.034;2022-12-15T07:55:33;99857.47;;;2.32;93.52
62152;BME280;48139;47.474;19.034;2022-12-15T07:58:56;99864.91;;;2.46;92.51
62152;BME280;48139;47.474;19.034;2022-12-15T08:01:59;99869.97;;;2.51;92.78
62152;BME280;48139;47.474;19.034;2022-12-15T08:05:03;99858.78;;;2.50;92.25
62152;BME280;48139;47.474;19.034;2022-12-15T08:08:05;99867.78;;;2.34;92.39
62152;BME280;48139;47.474;19.034;2022-12-15T08:11:19;99873.94;;;2.27;93.44
62152;BME280;48139;47.474;19.034;2022-12-15T08:14:22;99873.03;;;2.29;93.26
62152;BME280;48139;47.474;19.034;2022-12-15T08:17:25;99880.38;;;2.08;93.99
62152;BME280;48139;47.474;19.034;2022-12-15T08:20:27;99889.59;;;2.19;94.91
62152;BME280;48139;47.474;19.034;2022-12-15T08:23:31;99888.34;;;2.38;94.15
62152;BME280;48139;47.474;19.034;2022-12-15T08:26:36;99901.06;;;2.48;93.52
62152;BME280;48139;47.474;19.034;2022-12-15T08:29:39;99901.81;;;2.54;92.55
62152;BME280;48139;47.474;19.034;2022-12-15T08:32:52;99908.56;;;2.60;92.02
62152;BME280;48139;47.474;19.034;2022-12-15T08:36:00;99915.63;;;2.52;91.97
62152;BME280;48139;47.474;19.034;2022-12-15T08:39:03;99913.25;;;2.42;92.68
62152;BME280;48139;47.474;19.034;2022-12-15T08:42:06;99913.16;;;2.47;92.16
62152;BME280;48139;47.474;19.034;2022-12-15T08:45:09;99917.44;;;2.48;92.66
62152;BME280;48139;47.474;19.034;2022-12-15T08:48:13;99905.06;;;2.62;91.71
62152;BME280;48139;47.474;19.034;2022-12-15T08:51:16;99915.72;;;2.49;93.05
62152;BME280;48139;47.474;19.034;2022-12-15T08:54:19;99922.41;;;2.57;92.35
62152;BME280;48139;47.474;19.034;2022-12-15T08:57:22;99933.47;;;2.64;91.88
62152;BME280;48139;47.474;19.034;2022-12-15T09:00:25;99951.78;;;2.53;92.58
62152;BME280;48139;47.474;19.034;2022-12-15T09:03:28;99945.59;;;2.62;92.40
62152;BME280;48139;47.474;19.034;2022-12-15T09:06:33;99944.53;;;2.70;92.50
62152;BME280;48139;47.474;19.034;2022-12-15T09:09:37;99947.19;;;2.67;92.73
62152;BME280;48139;47.474;19.034;2022-12-15T09:12:39;99937.97;;;2.56;93.49
62152;BME280;48139;47.474;19.034;2022-12-15T09:15:42;99917.47;;;2.85;91.62
62152;BME280;48139;47.474;19.034;2022-12-15T09:19:08;99918.78;;;3.03;91.19
62152;BME280;48139;47.474;19.034;2022-12-15T09:22:11;99928.31;;;3.01;92.14
62152;BME280;48139;47.474;19.034;2022-12-15T09:25:13;99926.97;;;3.21;90.90
62152;BME280;48139;47.474;19.034;2022-12-15T09:28:16;99927.38;;;3.40;89.37
62152;BME280;48139;47.474;19.034;2022-12-15T09:31:21;99932.25;;;3.51;88.02
62152;BME280;48139;47.474;19.034;2022-12-15T09:34:24;99925.66;;;3.39;88.53
62152;BME280;48139;47.474;19.034;2022-12-15T09:37:29;99923.25;;;3.32;89.74
62152;BME280;48139;47.474;19.034;2022-12-15T09:40:32;99922.66;;;3.20;91.25
62152;BME280;48139;47.474;19.034;2022-12-15T09:43:36;99916.87;;;3.45;89.20
62152;BME280;48139;47.474;19.034;2022-12-15T09:47:31;99918.63;;;3.44;88.35
62152;BME280;48139;47.474;19.034;2022-12-15T09:50:38;99923.19;;;3.35;89.11
62152;BME280;48139;47.474;19.034;2022-12-15T09:53:41;99929.34;;;3.31;90.28
62152;BME280;48139;47.474;19.034;2022-12-15T09:57:00;99922.91;;;3.45;90.34
62152;BME280;48139;47.474;19.034;2022-12-15T10:00:13;99917.56;;;3.51;89.98
62152;BME280;48139;47.474;19.034;2022-12-15T10:07:07;99940.53;;;3.65;88.70
62152;BME280;48139;47.474;19.034;2022-12-15T10:10:23;99940.66;;;3.60;90.22
62152;BME280;48139;47.474;19.034;2022-12-15T10:17:22;99943.69;;;3.76;88.72
62152;BME280;48139;47.474;19.034;2022-12-15T10:20:27;99940.37;;;3.71;88.51
62152;BME280;48139;47.474;19.034;2022-12-15T10:23:31;99931.72;;;3.72;88.23
62152;BME280;48139;47.474;19.034;2022-12-15T10:26:36;99924.72;;;3.76;88.06
62152;BME280;48139;47.474;19.034;2022-12-15T10:29:43;99934.16;;;3.78;87.85
62152;BME280;48139;47.474;19.034;2022-12-15T10:33:01;99943.06;;;3.68;88.53
62152;BME280;48139;47.474;19.034;2022-12-15T10:36:09;99931.63;;;3.75;88.22
62152;BME280;48139;47.474;19.034;2022-12-15T10:39:12;99925.53;;;3.78;88.64
62152;BME280;48139;47.474;19.034;2022-12-15T10:42:23;99922.13;;;3.76;88.09
62152;BME280;48139;47.474;19.034;2022-12-15T10:45:38;99925.87;;;3.96;88.54
62152;BME280;48139;47.474;19.034;2022-12-15T10:48:42;99918.16;;;3.95;88.06
62152;BME280;48139;47.474;19.034;2022-12-15T10:51:56;99920.81;;;3.93;86.58
62152;BME280;48139;47.474;19.034;2022-12-15T10:54:59;99911.09;;;4.00;86.91
62152;BME280;48139;47.474;19.034;2022-12-15T10:58:04;99915.22;;;4.07;87.18
62152;BME280;48139;47.474;19.034;2022-12-15T11:01:18;99918.75;;;4.04;85.79
62152;BME280;48139;47.474;19.034;2022-12-15T11:04:30;99914.72;;;3.94;87.58
62152;BME280;48139;47.474;19.034;2022-12-15T11:07:42;99917.44;;;3.90;87.51
62152;BME280;48139;47.474;19.034;2022-12-15T11:10:57;99921.19;;;3.78;87.84
62152;BME280;48139;47.474;19.034;2022-12-15T11:14:21;99924.31;;;3.91;88.43
62152;BME280;48139;47.474;19.034;2022-12-15T11:17:38;99934.00;;;3.84;87.63
62152;BME280;48139;47.474;19.034;2022-12-15T11:20:46;99928.16;;;3.76;88.43
62152;BME280;48139;47.474;19.034;2022-12-15T11:24:13;99923.81;;;3.77;89.63
62152;BME280;48139;47.474;19.034;2022-12-15T11:27:25;99922.75;;;3.85;89.34
62152;BME280;48139;47.474;19.034;2022-12-15T11:30:37;99922.44;;;3.96;88.99
62152;BME280;48139;47.474;19.034;2022-12-15T11:33:43;99912.06;;;3.96;88.03
62152;BME280;48139;47.474;19.034;2022-12-15T11:50:30;99928.62;;;3.92;89.06
62152;BME280;48139;47.474;19.034;2022-12-15T12:04:27;99944.69;;;4.04;89.84
62152;BME280;48139;47.474;19.034;2022-12-15T12:07:44;99945.06;;;4.22;88.36
62152;BME280;48139;47.474;19.034;2022-12-15T12:11:13;99949.69;;;4.11;88.36
62152;BME280;48139;47.474;19.034;2022-12-15T12:14:25;99940.34;;;4.05;88.55
62152;BME280;48139;47.474;19.034;2022-12-15T12:17:50;99938.44;;;4.12;88.27
62152;BME280;48139;47.474;19.034;2022-12-15T12:21:12;99945.56;;;4.03;88.69
62152;BME280;48139;47.474;19.034;2022-12-15T12:24:29;99943.09;;;3.99;90.05
62152;BME280;48139;47.474;19.034;2022-12-15T12:27:45;99929.34;;;3.97;90.34
62152;BME280;48139;47.474;19.034;2022-12-15T12:30:53;99927.59;;;3.97;91.57
62152;BME280;48139;47.474;19.034;2022-12-15T12:34:02;99917.94;;;4.02;92.06
62152;BME280;48139;47.474;19.034;2022-12-15T12:37:38;99911.16;;;3.98;92.02
62152;BME280;48139;47.474;19.034;2022-12-15T12:40:54;99919.84;;;3.96;91.70
62152;BME280;48139;47.474;19.034;2022-12-15T12:44:24;99926.97;;;3.88;94.26
62152;BME280;48139;47.474;19.034;2022-12-15T12:47:35;99926.59;;;3.69;93.99
62152;BME280;48139;47.474;19.034;2022-12-15T12:50:41;99929.41;;;3.61;95.84
62152;BME280;48139;47.474;19.034;2022-12-15T12:53:44;99922.88;;;3.81;96.25
62152;BME280;48139;47.474;19.034;2022-12-15T12:56:50;99922.38;;;3.99;95.81
62152;BME280;48139;47.474;19.034;2022-12-15T12:59:57;99919.56;;;4.06;95.09
62152;BME280;48139;47.474;19.034;2022-12-15T13:03:14;99936.84;;;4.06;95.21
62152;BME280;48139;47.474;19.034;2022-12-15T13:09:43;99948.63;;;4.18;93.03
62152;BME280;48139;47.474;19.034;2022-12-15T13:12:58;99948.50;;;4.22;92.19
62152;BME280;48139;47.474;19.034;2022-12-15T13:16:20;99956.41;;;4.18;92.59
62152;BME280;48139;47.474;19.034;2022-12-15T13:26:20;99957.69;;;4.01;93.27
62152;BME280;48139;47.474;19.034;2022-12-15T13:29:23;99957.31;;;3.84;94.24
62152;BME280;48139;47.474;19.034;2022-12-15T13:32:30;99943.91;;;4.01;94.47
62152;BME280;48139;47.474;19.034;2022-12-15T13:35:34;99946.28;;;4.09;94.85
62152;BME280;48139;47.474;19.034;2022-12-15T13:38:50;99948.31;;;3.97;95.65
62152;BME280;48139;47.474;19.034;2022-12-15T13:45:28;99966.25;;;3.73;98.75
62152;BME280;48139;47.474;19.034;2022-12-15T13:48:39;99973.47;;;3.60;99.71
62152;BME280;48139;47.474;19.034;2022-12-15T13:51:44;99966.59;;;3.59;100.00
62152;BME280;48139;47.474;19.034;2022-12-15T13:54:56;99964.31;;;3.47;100.00
62152;BME280;48139;47.474;19.034;2022-12-15T13:58:13;99972.28;;;3.38;100.00
62152;BME280;48139;47.474;19.034;2022-12-15T14:01:20;99969.75;;;3.36;100.00
62152;BME280;48139;47.474;19.034;2022-12-15T14:04:28;99980.66;;;3.49;100.00
62152;BME280;48139;47.474;19.034;2022-12-15T14:07:32;99975.53;;;3.47;100.00
62152;BME280;48139;47.474;19.034;2022-12-15T14:10:40;99960.03;;;3.44;100.00
62152;BME280;48139;47.474;19.034;2022-12-15T14:13:42;99957.44;;;3.44;100.00
62152;BME280;48139;47.474;19.034;2022-12-15T14:16:56;99951.38;;;3.45;100.00
62152;BME280;48139;47.474;19.034;2022-12-15T14:20:10;99955.53;;;3.52;100.00
62152;BME280;48139;47.474;19.034;2022-12-15T14:23:28;99966.97;;;3.44;100.00
62152;BME280;48139;47.474;19.034;2022-12-15T14:26:32;99971.03;;;3.54;100.00
62152;BME280;48139;47.474;19.034;2022-12-15T14:29:34;99959.88;;;3.50;100.00
62152;BME280;48139;47.474;19.034;2022-12-15T14:32:37;99957.38;;;3.49;100.00
62152;BME280;48139;47.474;19.034;2022-12-15T14:35:47;99956.44;;;3.50;100.00
62152;BME280;48139;47.474;19.034;2022-12-15T14:39:03;99944.44;;;3.47;100.00
62152;BME280;48139;47.474;19.034;2022-12-15T14:42:06;99950.81;;;3.34;100.00
62152;BME280;48139;47.474;19.034;2022-12-15T14:45:24;99960.56;;;3.24;100.00
62152;BME280;48139;47.474;19.034;2022-12-15T14:48:28;99969.25;;;3.20;100.00
62152;BME280;48139;47.474;19.034;2022-12-15T14:51:45;99959.56;;;3.30;100.00
62152;BME280;48139;47.474;19.034;2022-12-15T14:54:55;99961.84;;;3.42;100.00
62152;BME280;48139;47.474;19.034;2022-12-15T14:57:59;99959.09;;;3.48;100.00
62152;BME280;48139;47.474;19.034;2022-12-15T15:01:02;99960.97;;;3.42;100.00
62152;BME280;48139;47.474;19.034;2022-12-15T15:04:25;99988.03;;;3.30;100.00
62152;BME280;48139;47.474;19.034;2022-12-15T15:07:31;99986.37;;;3.26;100.00
62152;BME280;48139;47.474;19.034;2022-12-15T15:10:33;99982.62;;;3.38;100.00
62152;BME280;48139;47.474;19.034;2022-12-15T15:13:39;100000.75;;;3.38;100.00
62152;BME280;48139;47.474;19.034;2022-12-15T15:16:43;99988.59;;;3.43;100.00
62152;BME280;48139;47.474;19.034;2022-12-15T15:19:49;99992.84;;;3.44;100.00
62152;BME280;48139;47.474;19.034;2022-12-15T15:29:35;99981.00;;;3.35;100.00
62152;BME280;48139;47.474;19.034;2022-12-15T15:32:56;99978.47;;;3.32;100.00
62152;BME280;48139;47.474;19.034;2022-12-15T15:36:01;99976.75;;;3.31;100.00
62152;BME280;48139;47.474;19.034;2022-12-15T15:39:11;99969.19;;;3.23;100.00
62152;BME280;48139;47.474;19.034;2022-12-15T15:42:14;99958.75;;;3.27;100.00
62152;BME280;48139;47.474;19.034;2022-12-15T15:45:17;99963.06;;;3.26;100.00
62152;BME280;48139;47.474;19.034;2022-12-15T15:48:24;99968.06;;;3.34;100.00
62152;BME280;48139;47.474;19.034;2022-12-15T15:51:29;99971.63;;;3.30;100.00
62152;BME280;48139;47.474;19.034;2022-12-15T15:54:33;99967.34;;;3.29;100.00
62152;BME280;48139;47.474;19.034;2022-12-15T15:57:39;99961.47;;;3.22;100.00
62152;BME280;48139;47.474;19.034;2022-12-15T16:00:42;99952.06;;;3.18;100.00
62152;BME280;48139;47.474;19.034;2022-12-15T16:03:45;99957.19;;;3.19;100.00
62152;BME280;48139;47.474;19.034;2022-12-15T16:06:48;99952.81;;;3.23;100.00
62152;BME280;48139;47.474;19.034;2022-12-15T16:09:51;99952.66;;;3.29;100.00
62152;BME280;48139;47.474;19.034;2022-12-15T16:12:56;99959.56;;;3.30;100.00
62152;BME280;48139;47.474;19.034;2022-12-15T16:15:59;99959.62;;;3.25;100.00
62152;BME280;48139;47.474;19.034;2022-12-15T16:19:01;99967.09;;;3.38;100.00
62152;BME280;48139;47.474;19.034;2022-12-15T16:22:05;99967.72;;;3.49;100.00
62152;BME280;48139;47.474;19.034;2022-12-15T16:25:20;99957.41;;;3.47;100.00
62152;BME280;48139;47.474;19.034;2022-12-15T16:28:27;99959.09;;;3.48;100.00
62152;BME280;48139;47.474;19.034;2022-12-15T16:31:33;99954.09;;;3.41;100.00
62152;BME280;48139;47.474;19.034;2022-12-15T16:34:43;99943.88;;;3.36;100.00
62152;BME280;48139;47.474;19.034;2022-12-15T16:37:46;99963.00;;;3.31;100.00
62152;BME280;48139;47.474;19.034;2022-12-15T16:40:50;99964.63;;;3.33;100.00
62152;BME280;48139;47.474;19.034;2022-12-15T16:43:53;99964.25;;;3.13;100.00
62152;BME280;48139;47.474;19.034;2022-12-15T16:46:55;99974.66;;;3.11;100.00
